createdAt,value
2022-12-11T00:00:05.707Z,100438.78
2022-12-11T00:02:32.215Z,100436.13
2022-12-11T00:04:58.646Z,100429.88
2022-12-11T00:07:25.126Z,100431.69
2022-12-11T00:09:51.470Z,100433.47
2022-12-11T00:12:17.886Z,100432.53
2022-12-11T00:14:44.249Z,100430.72
2022-12-11T00:17:10.719Z,100424.56
2022-12-11T00:19:37.098Z,100424.56
2022-12-11T00:22:03.528Z,100417.56
2022-12-11T00:24:29.951Z,100416.72
2022-12-11T00:26:56.506Z,100415.88
2022-12-11T00:29:22.922Z,100417.69
2022-12-11T00:31:49.321Z,100408.03
2022-12-11T00:34:15.790Z,100406.25
2022-12-11T00:36:42.238Z,100407.06
2022-12-11T00:39:08.649Z,100404.44
2022-12-11T00:41:35.106Z,100406.09
2022-12-11T00:44:02.257Z,100408.75
2022-12-11T00:46:28.677Z,100414.19
2022-12-11T00:48:55.234Z,100403.69
2022-12-11T00:51:21.841Z,100410.81
2022-12-11T00:53:48.398Z,100412.75
2022-12-11T00:56:18.442Z,100415.53
2022-12-11T00:58:46.015Z,100423.59
2022-12-11T01:01:19.333Z,100421.91
2022-12-11T01:03:46.417Z,100414.91
2022-12-11T01:06:18.594Z,100412.41
2022-12-11T01:08:45.835Z,100421.19
2022-12-11T01:11:14.843Z,100422.13
2022-12-11T01:13:41.798Z,100421.28
2022-12-11T01:16:10.782Z,100423.84
2022-12-11T01:18:37.470Z,100423.00
2022-12-11T01:21:12.241Z,100425.66
2022-12-11T01:23:39.602Z,100421.91
2022-12-11T01:26:11.357Z,100418.41
2022-12-11T01:28:37.813Z,100419.38
2022-12-11T01:31:11.456Z,100425.50
2022-12-11T01:33:38.878Z,100423.84
2022-12-11T01:36:14.515Z,100426.50
2022-12-11T01:38:40.935Z,100431.44
2022-12-11T01:41:08.399Z,100423.59
2022-12-11T01:43:35.554Z,100421.91
2022-12-11T01:46:02.053Z,100424.44
2022-12-11T01:48:30.988Z,100426.13
2022-12-11T01:51:04.920Z,100427.81
2022-12-11T01:53:35.000Z,100423.34
2022-12-11T01:56:02.981Z,100427.81
2022-12-11T01:58:32.917Z,100428.66
2022-12-11T02:01:01.193Z,100433.97
2022-12-11T02:03:27.692Z,100429.63
2022-12-11T02:05:54.167Z,100425.28
2022-12-11T02:08:21.216Z,100432.53
2022-12-11T02:10:56.847Z,100429.00
2022-12-11T02:13:34.842Z,100425.50
2022-12-11T02:16:16.916Z,100411.53
2022-12-11T02:18:54.360Z,100410.69
2022-12-11T02:21:26.612Z,100412.59
2022-12-11T02:24:30.629Z,100411.03
2022-12-11T02:27:09.157Z,100412.00
2022-12-11T02:29:39.487Z,100407.69
2022-12-11T02:32:45.537Z,100408.63
2022-12-11T02:35:33.403Z,100416.59
2022-12-11T02:38:22.646Z,100414.06
2022-12-11T02:40:52.447Z,100423.13
2022-12-11T02:43:20.145Z,100416.25
2022-12-11T02:45:48.561Z,100419.00
2022-12-11T02:48:16.982Z,100417.31
2022-12-11T02:50:48.937Z,100418.16
2022-12-11T02:53:20.406Z,100414.66
2022-12-11T02:55:50.823Z,100424.31
2022-12-11T02:58:22.185Z,100426.13
2022-12-11T03:00:48.727Z,100425.13
2022-12-11T03:03:15.354Z,100420.72
2022-12-11T03:05:42.657Z,100418.06
2022-12-11T03:08:09.437Z,100419.84
2022-12-11T03:10:35.809Z,100420.72
2022-12-11T03:13:03.169Z,100416.34
2022-12-11T03:15:41.447Z,100411.03
2022-12-11T03:18:26.329Z,100416.47
2022-12-11T03:21:21.466Z,100411.28
2022-12-11T03:24:02.895Z,100409.59
2022-12-11T03:26:32.896Z,100412.47
2022-12-11T03:29:04.681Z,100411.78
2022-12-11T03:31:40.049Z,100419.84
2022-12-11T03:34:14.177Z,100415.59
2022-12-11T03:36:43.856Z,100414.78
2022-12-11T03:39:18.792Z,100414.88
2022-12-11T03:41:48.492Z,100420.31
2022-12-11T03:44:16.577Z,100419.69
2022-12-11T03:46:45.530Z,100418.25
2022-12-11T03:49:24.502Z,100416.78
2022-12-11T03:51:54.398Z,100418.00
2022-12-11T03:54:21.273Z,100422.81
2022-12-11T03:56:50.952Z,100417.75
2022-12-11T03:59:17.514Z,100420.59
2022-12-11T04:01:43.954Z,100426.13
2022-12-11T04:04:10.381Z,100422.78
2022-12-11T04:06:36.921Z,100422.88
2022-12-11T04:09:03.422Z,100423.13
2022-12-11T04:11:35.721Z,100425.03
2022-12-11T04:14:21.856Z,100429.50
2022-12-11T04:16:48.228Z,100432.88
2022-12-11T04:19:33.727Z,100429.50
2022-12-11T04:22:20.238Z,100426.09
2022-12-11T04:24:50.266Z,100426.22
2022-12-11T04:27:38.270Z,100419.34
2022-12-11T04:30:07.186Z,100420.31
2022-12-11T04:32:33.648Z,100415.97
2022-12-11T04:35:00.153Z,100414.28
2022-12-11T04:37:27.698Z,100411.63
2022-12-11T04:39:54.247Z,100403.69
2022-12-11T04:42:20.567Z,100408.03
2022-12-11T04:44:47.118Z,100399.22
2022-12-11T04:47:13.541Z,100399.22
2022-12-11T04:49:39.971Z,100402.72
2022-12-11T04:52:06.443Z,100400.19
2022-12-11T04:54:32.906Z,100401.88
2022-12-11T04:56:59.274Z,100395.72
2022-12-11T04:59:25.762Z,100398.38
2022-12-11T05:01:52.344Z,100398.38
2022-12-11T05:04:18.883Z,100401.88
2022-12-11T05:06:45.238Z,100404.41
2022-12-11T05:09:13.133Z,100401.75
2022-12-11T05:11:39.473Z,100399.84
2022-12-11T05:14:05.973Z,100396.22
2022-12-11T05:16:32.483Z,100402.25
2022-12-11T05:18:58.878Z,100406.59
2022-12-11T05:21:27.964Z,100404.81
2022-12-11T05:23:56.720Z,100402.03
2022-12-11T05:26:23.067Z,100402.03
2022-12-11T05:28:54.204Z,100403.72
2022-12-11T05:31:23.920Z,100409.72
2022-12-11T05:33:50.933Z,100400.00
2022-12-11T05:36:23.346Z,100395.53
2022-12-11T05:38:50.880Z,100397.22
2022-12-11T05:41:20.484Z,100388.34
2022-12-11T05:43:47.138Z,100389.16
2022-12-11T05:46:25.619Z,100391.56
2022-12-11T05:48:55.477Z,100387.00
2022-12-11T05:51:21.942Z,100389.53
2022-12-11T05:53:50.242Z,100398.22
2022-12-11T05:56:20.222Z,100394.47
2022-12-11T05:58:47.751Z,100398.72
2022-12-11T06:01:23.726Z,100394.13
2022-12-11T06:03:50.273Z,100397.53
2022-12-11T06:06:17.109Z,100393.91
2022-12-11T06:08:43.690Z,100398.13
2022-12-11T06:11:13.458Z,100398.97
2022-12-11T06:13:39.868Z,100395.34
2022-12-11T06:16:07.826Z,100401.50
2022-12-11T06:18:39.304Z,100394.50
2022-12-11T06:21:16.692Z,100402.34
2022-12-11T06:23:44.439Z,100391.75
2022-12-11T06:26:12.271Z,100397.03
2022-12-11T06:28:39.540Z,100389.94
2022-12-11T06:31:06.663Z,100385.47
2022-12-11T06:33:33.906Z,100378.34
2022-12-11T06:36:05.739Z,100382.72
2022-12-11T06:38:32.286Z,100382.81
2022-12-11T06:41:00.983Z,100388.13
2022-12-11T06:43:27.768Z,100394.25
2022-12-11T06:45:57.918Z,100390.03
2022-12-11T06:48:27.334Z,100379.44
2022-12-11T06:50:54.085Z,100374.13
2022-12-11T06:53:20.749Z,100379.44
2022-12-11T06:55:47.623Z,100368.81
2022-12-11T06:58:14.318Z,100374.84
2022-12-11T07:00:41.146Z,100379.22
2022-12-11T07:03:08.107Z,100387.88
2022-12-11T07:05:34.805Z,100384.28
2022-12-11T07:08:01.715Z,100381.50
2022-12-11T07:10:28.451Z,100387.53
2022-12-11T07:12:55.474Z,100382.22
2022-12-11T07:15:23.630Z,100383.78
2022-12-11T07:17:50.460Z,100385.50
2022-12-11T07:20:17.410Z,100388.84
2022-12-11T07:22:46.696Z,100386.09
2022-12-11T07:25:14.295Z,100389.59
2022-12-11T07:28:18.939Z,100392.00
2022-12-11T07:34:55.187Z,100384.66
2022-12-11T07:37:21.603Z,100389.09
2022-12-11T07:39:48.984Z,100388.16
2022-12-11T07:42:15.339Z,100386.44
2022-12-11T07:44:41.669Z,100389.09
2022-12-11T07:47:07.964Z,100384.53
2022-12-11T07:49:34.278Z,100383.69
2022-12-11T07:52:00.609Z,100387.06
2022-12-11T07:54:26.937Z,100390.56
2022-12-11T07:56:54.109Z,100391.28
2022-12-11T07:59:21.103Z,100394.66
2022-12-11T08:01:47.617Z,100394.66
2022-12-11T08:04:15.627Z,100389.38
2022-12-11T08:06:42.751Z,100392.03
2022-12-11T08:09:18.939Z,100392.97
2022-12-11T08:11:49.314Z,100396.44
2022-12-11T08:14:15.649Z,100391.16
2022-12-11T08:16:43.975Z,100394.66
2022-12-11T08:19:13.801Z,100396.34
2022-12-11T08:21:40.299Z,100400.81
2022-12-11T08:24:06.944Z,100396.34
2022-12-11T08:26:33.403Z,100396.34
2022-12-11T08:29:01.488Z,100401.66
2022-12-11T08:31:28.620Z,100399.97
2022-12-11T08:33:56.578Z,100400.81
2022-12-11T08:36:23.821Z,100401.66
2022-12-11T08:38:51.296Z,100404.16
2022-12-11T08:41:22.285Z,100406.72
2022-12-11T08:43:48.658Z,100408.38
2022-12-11T08:46:15.931Z,100412.75
2022-12-11T08:48:43.337Z,100403.81
2022-12-11T08:51:14.742Z,100402.88
2022-12-11T08:53:41.270Z,100409.00
2022-12-11T08:56:11.382Z,100406.22
2022-12-11T08:58:38.277Z,100406.22
2022-12-11T09:01:10.076Z,100401.63
2022-12-11T09:03:37.722Z,100395.41
2022-12-11T09:06:09.089Z,100394.41
2022-12-11T09:08:36.065Z,100394.31
2022-12-11T09:11:08.688Z,100394.91
2022-12-11T09:13:35.814Z,100392.97
2022-12-11T09:16:07.999Z,100389.22
2022-12-11T09:18:34.588Z,100388.25
2022-12-11T09:21:06.006Z,100391.63
2022-12-11T09:23:35.345Z,100385.25
2022-12-11T09:26:12.595Z,100387.75
2022-12-11T09:28:45.784Z,100384.16
2022-12-11T09:31:20.173Z,100390.06
2022-12-11T09:33:46.730Z,100382.81
2022-12-11T09:36:13.134Z,100378.34
2022-12-11T09:38:39.702Z,100380.88
2022-12-11T09:41:20.965Z,100377.16
2022-12-11T09:43:47.352Z,100375.34
2022-12-11T09:46:15.970Z,100366.28
2022-12-11T09:48:46.168Z,100358.91
2022-12-11T09:51:39.895Z,100355.28
2022-12-11T09:54:06.416Z,100354.22
2022-12-11T09:56:39.206Z,100356.72
2022-12-11T09:59:25.292Z,100351.16
2022-12-11T10:02:02.601Z,100351.03
2022-12-11T10:04:32.029Z,100345.59
2022-12-11T10:07:20.922Z,100352.59
2022-12-11T10:10:07.612Z,100351.50
2022-12-11T10:13:09.453Z,100354.03
2022-12-11T10:15:43.811Z,100362.72
2022-12-11T10:18:14.964Z,100360.06
2022-12-11T10:20:42.802Z,100359.09
2022-12-11T10:23:17.240Z,100358.97
2022-12-11T10:25:51.104Z,100358.84
2022-12-11T10:28:20.150Z,100351.72
2022-12-11T10:31:06.593Z,100356.88
2022-12-11T10:33:40.893Z,100357.88
2022-12-11T10:36:09.066Z,100361.25
2022-12-11T10:38:44.923Z,100361.97
2022-12-11T10:41:13.995Z,100360.16
2022-12-11T10:43:43.284Z,100362.66
2022-12-11T10:46:25.879Z,100357.13
2022-12-11T10:48:54.551Z,100352.50
2022-12-11T10:51:24.110Z,100355.88
2022-12-11T10:53:53.623Z,100352.28
2022-12-11T10:56:28.531Z,100355.63
2022-12-11T10:58:57.674Z,100354.69
2022-12-11T11:01:26.871Z,100351.03
2022-12-11T11:04:19.049Z,100350.94
2022-12-11T11:06:45.429Z,100335.00
2022-12-11T11:09:29.776Z,100340.16
2022-12-11T11:11:56.126Z,100338.34
2022-12-11T11:14:25.326Z,100336.66
2022-12-11T11:16:57.309Z,100333.03
2022-12-11T11:19:35.885Z,100340.16
2022-12-11T11:22:06.986Z,100337.38
2022-12-11T11:24:38.514Z,100340.03
2022-12-11T11:27:15.023Z,100334.59
2022-12-11T11:29:42.445Z,100331.94
2022-12-11T11:32:24.554Z,100324.81
2022-12-11T11:34:50.881Z,100318.66
2022-12-11T11:37:33.527Z,100315.16
2022-12-11T11:40:17.073Z,100322.16
2022-12-11T11:43:10.604Z,100321.06
2022-12-11T11:45:59.359Z,100320.22
2022-12-11T11:48:48.262Z,100314.06
2022-12-11T11:51:39.457Z,100319.38
2022-12-11T11:54:26.098Z,100316.72
2022-12-11T11:56:55.908Z,100312.38
2022-12-11T11:59:31.916Z,100314.06
2022-12-11T12:01:58.896Z,100315.03
2022-12-11T12:04:31.328Z,100305.25
2022-12-11T12:07:11.802Z,100307.78
2022-12-11T12:10:06.678Z,100310.44
2022-12-11T12:13:00.815Z,100307.78
2022-12-11T12:15:38.969Z,100319.09
2022-12-11T12:18:25.133Z,100312.13
2022-12-11T12:21:03.468Z,100315.34
2022-12-11T12:23:52.665Z,100315.50
2022-12-11T12:26:27.921Z,100313.56
2022-12-11T12:29:39.012Z,100307.38
2022-12-11T12:32:25.470Z,100302.94
2022-12-11T12:35:17.009Z,100298.47
2022-12-11T12:37:50.361Z,100304.59
2022-12-11T12:40:55.642Z,100304.59
2022-12-11T12:43:59.536Z,100310.75
2022-12-11T12:47:00.631Z,100309.09
2022-12-11T12:49:42.753Z,100305.59
2022-12-11T12:52:23.089Z,100306.53
2022-12-11T12:55:12.978Z,100304.88
2022-12-11T12:57:44.871Z,100307.53
2022-12-11T13:00:14.653Z,100303.16
2022-12-11T13:02:50.816Z,100304.16
2022-12-11T13:05:26.394Z,100307.78
2022-12-11T13:07:59.192Z,100302.59
2022-12-11T13:10:34.577Z,100298.38
2022-12-11T13:13:03.065Z,100298.50
2022-12-11T13:15:43.624Z,100295.97
2022-12-11T13:18:39.126Z,100295.97
2022-12-11T13:21:26.168Z,100288.97
2022-12-11T13:23:52.795Z,100284.63
2022-12-11T13:26:30.749Z,100288.28
2022-12-11T13:28:58.187Z,100289.13
2022-12-11T13:31:34.793Z,100287.28
2022-12-11T13:34:23.601Z,100296.94
2022-12-11T13:36:52.475Z,100284.63
2022-12-11T13:39:26.094Z,100288.00
2022-12-11T13:41:56.820Z,100287.28
2022-12-11T13:44:29.065Z,100288.97
2022-12-11T13:46:58.130Z,100293.34
2022-12-11T13:49:28.622Z,100302.25
2022-12-11T13:51:57.897Z,100302.25
2022-12-11T13:54:26.332Z,100303.13
2022-12-11T13:56:56.906Z,100301.28
2022-12-11T13:59:41.026Z,100303.13
2022-12-11T14:02:27.058Z,100318.06
2022-12-11T14:04:59.126Z,100303.94
2022-12-11T14:07:33.472Z,100315.53
2022-12-11T14:10:09.441Z,100314.84
2022-12-11T14:12:36.954Z,100312.19
2022-12-11T14:15:04.737Z,100316.78
2022-12-11T14:17:34.076Z,100321.25
2022-12-11T14:20:07.118Z,100316.06
2022-12-11T14:22:33.600Z,100308.09
2022-12-11T14:25:05.562Z,100314.38
2022-12-11T14:27:31.878Z,100316.19
2022-12-11T14:29:58.292Z,100316.31
2022-12-11T14:32:34.999Z,100313.66
2022-12-11T14:35:05.870Z,100313.66
2022-12-11T14:37:35.274Z,100312.94
2022-12-11T14:40:07.289Z,100311.13
2022-12-11T14:42:45.347Z,100304.13
2022-12-11T14:45:30.528Z,100305.94
2022-12-11T14:47:59.681Z,100306.91
2022-12-11T14:50:31.362Z,100310.53
2022-12-11T14:53:04.055Z,100308.88
2022-12-11T14:55:35.687Z,100308.88
2022-12-11T14:58:07.481Z,100310.78
2022-12-11T15:00:36.791Z,100302.00
2022-12-11T15:03:07.333Z,100305.47
2022-12-11T15:05:40.512Z,100304.75
2022-12-11T15:08:09.895Z,100303.94
2022-12-11T15:10:41.053Z,100315.38
2022-12-11T15:13:08.860Z,100310.34
2022-12-11T15:15:45.602Z,100317.31
2022-12-11T15:18:29.708Z,100303.34
2022-12-11T15:20:59.899Z,100318.41
2022-12-11T15:23:27.330Z,100306.22
2022-12-11T15:25:56.647Z,100309.03
2022-12-11T15:28:34.369Z,100317.09
2022-12-11T15:31:04.838Z,100316.28
2022-12-11T15:33:34.545Z,100321.69
2022-12-11T15:36:06.114Z,100325.31
2022-12-11T15:38:41.928Z,100320.03
2022-12-11T15:41:17.421Z,100324.59
2022-12-11T15:43:45.000Z,100326.53
2022-12-11T15:46:11.332Z,100323.19
2022-12-11T15:48:37.670Z,100329.59
2022-12-11T15:51:04.210Z,100328.75
2022-12-11T15:53:30.627Z,100328.88
2022-12-11T15:55:57.785Z,100328.97
2022-12-11T15:58:25.752Z,100331.63
2022-12-11T16:00:53.242Z,100339.75
2022-12-11T16:03:21.304Z,100335.38
2022-12-11T16:05:49.422Z,100342.38
2022-12-11T16:08:18.883Z,100334.53
2022-12-11T16:10:45.865Z,100334.69
2022-12-11T16:13:13.029Z,100334.69
2022-12-11T16:15:42.011Z,100337.44
2022-12-11T16:18:10.880Z,100337.56
2022-12-11T16:20:39.416Z,100338.66
2022-12-11T16:23:06.121Z,100339.50
2022-12-11T16:25:32.948Z,100339.50
2022-12-11T16:28:01.422Z,100337.81
2022-12-11T16:30:29.282Z,100339.63
2022-12-11T16:32:55.992Z,100336.97
2022-12-11T16:35:22.521Z,100338.91
2022-12-11T16:37:50.639Z,100334.47
2022-12-11T16:40:17.985Z,100338.91
2022-12-11T16:42:44.750Z,100334.47
2022-12-11T16:45:14.814Z,100337.13
2022-12-11T16:47:41.764Z,100336.25
2022-12-11T16:50:08.934Z,100340.59
2022-12-11T16:52:35.370Z,100343.38
2022-12-11T16:55:01.846Z,100336.25
2022-12-11T16:57:28.146Z,100348.69
2022-12-11T16:59:54.469Z,100345.19
2022-12-11T17:02:20.944Z,100338.91
2022-12-11T17:04:53.705Z,100338.91
2022-12-11T17:07:20.444Z,100344.94
2022-12-11T17:09:46.937Z,100340.59
2022-12-11T17:12:13.250Z,100340.59
2022-12-11T17:14:39.637Z,100338.91
2022-12-11T17:17:06.050Z,100331.66
2022-12-11T17:19:32.345Z,100336.97
2022-12-11T17:21:58.942Z,100335.16
2022-12-11T17:24:25.372Z,100336.00
2022-12-11T17:26:52.165Z,100336.00
2022-12-11T17:29:18.573Z,100340.22
2022-12-11T17:31:45.099Z,100340.34
2022-12-11T17:34:11.458Z,100336.72
2022-12-11T17:36:37.833Z,100336.72
2022-12-11T17:39:04.199Z,100341.91
2022-12-11T17:41:30.641Z,100343.72
2022-12-11T17:43:57.034Z,100342.75
2022-12-11T17:46:23.699Z,100338.44
2022-12-11T17:48:50.128Z,100346.25
2022-12-11T17:51:23.777Z,100339.13
2022-12-11T17:53:51.768Z,100342.75
2022-12-11T17:56:18.170Z,100347.22
2022-12-11T17:58:44.842Z,100338.44
2022-12-11T18:01:13.049Z,100349.03
2022-12-11T18:03:40.285Z,100349.03
2022-12-11T18:06:13.710Z,100342.88
2022-12-11T18:08:41.459Z,100336.72
2022-12-11T18:11:16.511Z,100341.91
2022-12-11T18:13:44.316Z,100341.09
2022-12-11T18:16:13.523Z,100346.38
2022-12-11T18:18:40.254Z,100348.19
2022-12-11T18:21:07.330Z,100354.34
2022-12-11T18:23:34.415Z,100350.97
2022-12-11T18:26:01.505Z,100342.16
2022-12-11T18:28:30.196Z,100340.34
2022-12-11T18:30:59.327Z,100340.34
2022-12-11T18:33:25.728Z,100339.50
2022-12-11T18:35:52.328Z,100350.97
2022-12-11T18:38:18.701Z,100350.25
2022-12-11T18:40:45.233Z,100344.22
2022-12-11T18:43:11.814Z,100347.84
2022-12-11T18:45:42.980Z,100347.00
2022-12-11T18:48:09.719Z,100339.16
2022-12-11T18:50:36.197Z,100332.16
2022-12-11T18:53:03.162Z,100331.44
2022-12-11T18:55:29.755Z,100338.56
2022-12-11T18:57:56.099Z,100330.72
2022-12-11T19:00:22.987Z,100334.34
2022-12-11T19:02:52.566Z,100337.00
2022-12-11T19:05:19.009Z,100340.59
2022-12-11T19:07:45.585Z,100335.31
2022-12-11T19:10:12.013Z,100330.97
2022-12-11T19:12:38.375Z,100333.63
2022-12-11T19:15:05.180Z,100333.63
2022-12-11T19:17:31.516Z,100330.13
2022-12-11T19:22:24.369Z,100338.09
2022-12-11T19:24:51.309Z,100338.94
2022-12-11T19:27:17.612Z,100346.88
2022-12-11T19:29:43.924Z,100350.53
2022-12-11T19:32:10.354Z,100345.22
2022-12-11T19:34:38.398Z,100348.81
2022-12-11T19:37:04.838Z,100350.63
2022-12-11T19:39:31.301Z,100356.06
2022-12-11T19:41:57.826Z,100349.06
2022-12-11T19:44:24.282Z,100352.69
2022-12-11T19:46:50.676Z,100347.50
2022-12-11T19:49:17.205Z,100349.31
2022-12-11T19:51:43.972Z,100358.25
2022-12-11T19:54:14.174Z,100351.25
2022-12-11T19:56:41.151Z,100351.38
2022-12-11T19:59:11.817Z,100348.72
2022-12-11T20:01:38.576Z,100349.56
2022-12-11T20:04:11.591Z,100346.91
2022-12-11T20:06:40.417Z,100352.22
2022-12-11T20:09:10.786Z,100353.06
2022-12-11T20:11:42.246Z,100345.19
2022-12-11T20:14:08.874Z,100346.06
2022-12-11T20:17:08.787Z,100346.19
2022-12-11T20:19:22.163Z,100350.50
2022-12-11T20:21:48.503Z,100355.81
2022-12-11T20:24:14.842Z,100343.53
2022-12-11T20:26:41.188Z,100349.81
2022-12-11T20:29:08.192Z,100348.94
2022-12-11T20:31:36.153Z,100361.25
2022-12-11T20:34:03.080Z,100353.41
2022-12-11T20:36:29.818Z,100355.97
2022-12-11T20:38:56.284Z,100356.78
2022-12-11T20:41:24.439Z,100359.34
2022-12-11T20:43:53.889Z,100348.72
2022-12-11T20:46:21.987Z,100351.25
2022-12-11T20:48:49.012Z,100357.38
2022-12-11T20:51:20.956Z,100353.78
2022-12-11T20:53:58.106Z,100353.78
2022-12-11T20:56:26.844Z,100348.34
2022-12-11T20:58:53.584Z,100353.66
2022-12-11T21:01:24.896Z,100351.84
2022-12-11T21:03:53.209Z,100356.28
2022-12-11T21:06:30.723Z,100349.22
2022-12-11T21:08:58.999Z,100342.19
2022-12-11T21:11:25.471Z,100348.47
2022-12-11T21:13:52.194Z,100352.94
2022-12-11T21:16:19.517Z,100353.78
2022-12-11T21:18:46.579Z,100354.72
2022-12-11T21:21:13.481Z,100350.28
2022-12-11T21:23:39.877Z,100351.13
2022-12-11T21:26:06.541Z,100355.59
2022-12-11T21:28:35.456Z,100349.44
2022-12-11T21:31:05.011Z,100352.94
2022-12-11T21:33:31.445Z,100356.53
2022-12-11T21:35:59.376Z,100353.91
2022-12-11T21:38:26.704Z,100349.56
2022-12-11T21:40:54.030Z,100352.22
2022-12-11T21:43:20.541Z,100351.38
2022-12-11T21:46:02.649Z,100350.50
2022-12-11T21:48:29.321Z,100347.84
2022-12-11T21:50:56.078Z,100346.19
2022-12-11T21:53:22.401Z,100347.16
2022-12-11T21:55:48.742Z,100347.28
2022-12-11T21:58:15.589Z,100350.75
2022-12-11T22:00:41.985Z,100350.75
2022-12-11T22:03:08.448Z,100348.09
2022-12-11T22:05:34.770Z,100354.25
2022-12-11T22:08:01.186Z,100352.47
2022-12-11T22:10:28.800Z,100355.13
2022-12-11T22:12:55.489Z,100356.06
2022-12-11T22:15:21.975Z,100361.38
2022-12-11T22:17:48.502Z,100352.56
2022-12-11T22:20:14.814Z,100356.91
2022-12-11T22:22:41.131Z,100364.03
2022-12-11T22:25:07.921Z,100360.53
2022-12-11T22:27:34.375Z,100365.94
2022-12-11T22:30:00.942Z,100371.25
2022-12-11T22:32:27.679Z,100371.25
2022-12-11T22:34:56.169Z,100371.25
2022-12-11T22:37:22.480Z,100372.13
2022-12-11T22:39:48.814Z,100371.25
2022-12-11T22:42:15.433Z,100370.41
2022-12-11T22:44:41.786Z,100373.06
2022-12-11T22:47:08.097Z,100366.91
2022-12-11T22:49:35.748Z,100367.75
2022-12-11T22:52:02.067Z,100371.25
2022-12-11T22:54:28.412Z,100363.19
2022-12-11T22:56:54.769Z,100362.34
2022-12-11T22:59:21.200Z,100365.84
2022-12-11T23:01:47.503Z,100354.25
2022-12-11T23:04:14.046Z,100353.31
2022-12-11T23:06:40.540Z,100356.78
2022-12-11T23:09:07.331Z,100353.41
2022-12-11T23:11:36.905Z,100353.41
2022-12-11T23:14:05.803Z,100366.69
2022-12-11T23:16:32.321Z,100371.97
2022-12-11T23:18:59.351Z,100372.13
2022-12-11T23:21:27.923Z,100371.25
2022-12-11T23:23:54.948Z,100365.94
2022-12-11T23:26:22.568Z,100372.13
2022-12-11T23:28:49.682Z,100365.94
2022-12-11T23:31:17.368Z,100362.47
2022-12-11T23:33:44.053Z,100359.81
2022-12-11T23:36:11.252Z,100368.59
2022-12-11T23:38:38.760Z,100367.75
2022-12-11T23:41:05.659Z,100371.25
2022-12-11T23:43:33.299Z,100367.66
2022-12-11T23:45:59.683Z,100366.81
2022-12-11T23:48:26.093Z,100370.31
2022-12-11T23:50:52.578Z,100372.97
2022-12-11T23:53:18.940Z,100379.94
2022-12-11T23:55:45.376Z,100380.78
2022-12-11T23:58:12.113Z,100380.78
